Eau Claire, WI (54703)

9:09 PM CST on December 05, 2016 (GMT -0600)
Rowe St. & Cornell St. | | Change Station

Elev 849 ft 44.84 °N, 91.49 °W | Updated 3 seconds ago

Clear
Clear
36.9 °F
Feels Like 37 °F
N
0.0
Wind Variable Wind from North
Gusts 6.9 mph

Today
High -- | Low -- °F
--% Chance of Precip.
Yesterday
High -- | Low -- °F
Precip. -- in
Pressure 29.77 in
Visibility 10.0 miles
Clouds Clear
Windchill 37 °F
Dew Point 28 °F
Humidity 70%
Rainfall 0.07 in
Snow Depth Not available.
7:28 AM 4:25 PM
Waxing Crescent, 37% visible
METAR KEAU 060256Z AUTO 15013KT 10SM CLR 02/M01 A2974 RMK AO2 SLP079 T00221011 50002
Pressure 29.77 in
Visibility 10.0 miles
Clouds Clear
Windchill 37 °F
Dew Point 28 °F
Humidity 70%
Rainfall 0.07 in
Snow Depth Not available.
7:28 AM 4:25 PM
Waxing Crescent, 37% visible
METAR KEAU 060256Z AUTO 15013KT 10SM CLR 02/M01 A2974 RMK AO2 SLP079 T00221011 50002

10-Day Weather Forecast

Almanac

Astronomy

Dec. 05, 2016 Rise Set
Actual Time
Civil Twilight
Nautical Twilight
Astronomical Twilight
Moon
Length of Visible Light
Length of Day
Tomorrow will be .
, % of the Moon is Illuminated

Today's Extremes

State Highs State Lows

Community

WunderPhotos

Upload Photos

1,955,914 photos uploaded!

WunderBlog® & News

Nearby

Air Quality

  Air Quality AQ Index Pollutant
Not available.

Snow Depth

Station Depth Elevation

Earthquake Activity

City Distance Mag. Time & Date
Minimum magnitude displayed is 2.5.

Coastal Water Temperatures

Place Temperature

Stations

Nearby Weather Stations

Station Location Temp. Windchill Dew Point Humidity Wind Precip. Elev Updated Type
                   

Watches & Warnings

There are currently no watches in effect.